createdAt,value
2022-07-26T00:00:12.766Z,17.03
2022-07-26T00:02:39.537Z,16.99
2022-07-26T00:05:14.341Z,16.89
2022-07-26T00:07:41.276Z,16.90
2022-07-26T00:10:07.897Z,16.90
2022-07-26T00:12:34.331Z,16.86
2022-07-26T00:15:00.864Z,16.83
2022-07-26T00:17:27.294Z,16.82
2022-07-26T00:19:53.751Z,16.74
2022-07-26T00:22:35.570Z,16.73
2022-07-26T00:25:06.384Z,16.62
2022-07-26T00:27:36.907Z,16.59
2022-07-26T00:30:04.802Z,16.65
2022-07-26T00:32:31.270Z,16.65
2022-07-26T00:34:57.730Z,16.68
2022-07-26T00:37:24.968Z,16.67
2022-07-26T00:39:51.396Z,16.61
2022-07-26T00:42:17.885Z,16.58
2022-07-26T00:44:45.305Z,16.45
2022-07-26T00:47:11.920Z,16.36
2022-07-26T00:49:38.436Z,16.51
2022-07-26T00:52:05.390Z,16.46
2022-07-26T00:54:32.301Z,16.40
2022-07-26T00:56:59.048Z,16.39
2022-07-26T00:59:25.510Z,16.35
2022-07-26T01:04:36.431Z,16.30
2022-07-26T01:07:03.439Z,16.32
2022-07-26T01:09:42.150Z,16.25
2022-07-26T01:12:09.076Z,16.33
2022-07-26T01:14:35.500Z,16.30
2022-07-26T01:17:02.023Z,16.27
2022-07-26T01:19:28.439Z,16.21
2022-07-26T01:21:54.956Z,16.22
2022-07-26T01:24:21.412Z,16.03
2022-07-26T01:26:47.822Z,15.90
2022-07-26T01:29:14.258Z,15.88
2022-07-26T01:31:40.801Z,15.85
2022-07-26T01:34:07.571Z,15.88
2022-07-26T01:36:34.169Z,15.89
2022-07-26T01:39:00.623Z,15.91
2022-07-26T01:41:37.307Z,15.79
2022-07-26T01:44:04.313Z,15.82
2022-07-26T01:46:30.853Z,15.93
2022-07-26T01:48:57.399Z,15.99
2022-07-26T01:51:23.953Z,15.96
2022-07-26T01:53:50.346Z,15.82
2022-07-26T01:56:16.779Z,15.78
2022-07-26T01:58:43.289Z,15.81
2022-07-26T02:01:09.797Z,15.84
2022-07-26T02:03:36.242Z,15.92
2022-07-26T02:06:03.345Z,15.87
2022-07-26T02:08:29.914Z,15.80
2022-07-26T02:11:04.034Z,15.76
2022-07-26T02:13:31.927Z,15.71
2022-07-26T02:15:59.155Z,15.66
2022-07-26T02:18:26.786Z,15.60
2022-07-26T02:20:53.374Z,15.52
2022-07-26T02:23:20.162Z,15.46
2022-07-26T02:25:47.811Z,15.46
2022-07-26T02:28:15.094Z,15.44
2022-07-26T02:30:41.953Z,15.42
2022-07-26T02:33:08.476Z,15.35
2022-07-26T02:35:35.214Z,15.34
2022-07-26T02:38:03.040Z,15.21
2022-07-26T02:40:29.620Z,15.22
2022-07-26T02:42:56.070Z,15.16
2022-07-26T02:45:22.503Z,15.16
2022-07-26T02:47:49.675Z,15.12
2022-07-26T02:50:17.041Z,15.13
2022-07-26T02:52:43.462Z,15.06
2022-07-26T02:55:10.373Z,15.09
2022-07-26T02:57:45.484Z,15.01
2022-07-26T03:00:14.339Z,15.08
2022-07-26T03:02:40.823Z,15.07
2022-07-26T03:05:07.654Z,15.08
2022-07-26T03:07:34.376Z,15.09
2022-07-26T03:10:00.816Z,15.03
2022-07-26T03:12:27.322Z,15.06
2022-07-26T03:14:53.918Z,15.05
2022-07-26T03:17:20.324Z,15.05
2022-07-26T03:19:46.766Z,15.05
2022-07-26T03:22:13.322Z,15.13
2022-07-26T03:24:39.876Z,15.11
2022-07-26T03:27:06.327Z,15.05
2022-07-26T03:29:32.873Z,15.06
2022-07-26T03:31:59.330Z,15.08
2022-07-26T03:34:25.794Z,15.03
2022-07-26T03:36:52.266Z,15.07
2022-07-26T03:39:18.711Z,15.13
2022-07-26T03:41:45.127Z,15.16
2022-07-26T03:44:11.697Z,15.19
2022-07-26T03:46:38.330Z,15.21
2022-07-26T03:49:04.865Z,15.22
2022-07-26T03:51:33.912Z,15.24
2022-07-26T03:54:00.773Z,15.28
2022-07-26T03:56:33.352Z,15.37
2022-07-26T03:59:04.338Z,15.36
2022-07-26T04:01:31.456Z,15.37
2022-07-26T04:03:58.355Z,15.37
2022-07-26T04:06:24.919Z,15.43
2022-07-26T04:08:52.830Z,15.48
2022-07-26T04:11:19.731Z,15.54
2022-07-26T04:13:46.200Z,15.68
2022-07-26T04:16:13.174Z,15.72
2022-07-26T04:18:39.600Z,15.77
2022-07-26T04:21:06.206Z,15.86
2022-07-26T04:23:32.659Z,15.96
2022-07-26T04:25:59.247Z,16.04
2022-07-26T04:28:28.884Z,16.11
2022-07-26T04:30:56.151Z,16.14
2022-07-26T04:33:22.777Z,16.21
2022-07-26T04:35:49.274Z,16.32
2022-07-26T04:38:15.685Z,16.38
2022-07-26T04:40:42.119Z,16.53
2022-07-26T04:43:15.641Z,16.61
2022-07-26T04:45:42.746Z,16.73
2022-07-26T04:48:09.244Z,16.81
2022-07-26T04:50:35.713Z,16.85
2022-07-26T04:53:03.016Z,16.90
2022-07-26T04:55:29.663Z,17.01
2022-07-26T04:57:56.164Z,17.06
2022-07-26T05:00:25.211Z,17.15
2022-07-26T05:02:53.035Z,17.25
2022-07-26T05:05:19.612Z,17.32
2022-07-26T05:07:47.403Z,17.41
2022-07-26T05:10:14.303Z,17.49
2022-07-26T05:12:40.821Z,17.57
2022-07-26T05:15:13.698Z,17.69
2022-07-26T05:17:41.153Z,17.76
2022-07-26T05:20:08.363Z,17.81
2022-07-26T05:22:35.246Z,17.88
2022-07-26T05:25:01.787Z,17.98
2022-07-26T05:27:28.236Z,18.00
2022-07-26T05:29:55.839Z,18.04
2022-07-26T05:32:25.142Z,18.09
2022-07-26T05:34:51.617Z,18.22
2022-07-26T05:37:18.032Z,18.32
2022-07-26T05:39:44.501Z,18.40
2022-07-26T05:42:10.953Z,18.47
2022-07-26T05:44:42.638Z,18.51
2022-07-26T05:47:09.568Z,18.63
2022-07-26T05:49:39.752Z,18.75
2022-07-26T05:52:07.490Z,18.80
2022-07-26T05:54:33.953Z,18.89
2022-07-26T05:57:00.353Z,18.98
2022-07-26T05:59:26.784Z,19.02
2022-07-26T06:01:56.492Z,19.09
2022-07-26T06:04:26.803Z,19.14
2022-07-26T06:06:54.612Z,19.21
2022-07-26T06:09:21.461Z,19.29
2022-07-26T06:11:47.934Z,19.37
2022-07-26T06:14:14.766Z,19.44
2022-07-26T06:16:41.665Z,19.49
2022-07-26T06:19:08.192Z,19.51
2022-07-26T06:21:34.649Z,19.59
2022-07-26T06:24:01.187Z,19.65
2022-07-26T06:26:27.596Z,19.77
2022-07-26T06:28:54.057Z,19.85
2022-07-26T06:31:20.668Z,19.85
2022-07-26T06:33:47.200Z,19.90
2022-07-26T06:36:13.621Z,20.00
2022-07-26T06:38:40.306Z,20.05
2022-07-26T06:41:06.834Z,20.18
2022-07-26T06:43:33.301Z,20.28
2022-07-26T06:45:59.863Z,20.28
2022-07-26T06:48:26.332Z,20.28
2022-07-26T06:50:52.756Z,20.30
2022-07-26T06:53:19.248Z,20.30
2022-07-26T06:55:45.872Z,20.30
2022-07-26T06:58:12.437Z,20.42
2022-07-26T07:00:39.056Z,20.58
2022-07-26T07:03:05.684Z,20.71
2022-07-26T07:05:32.919Z,20.66
2022-07-26T07:07:59.546Z,20.63
2022-07-26T07:10:26.372Z,20.72
2022-07-26T07:12:52.799Z,20.83
2022-07-26T07:15:19.279Z,20.80
2022-07-26T07:17:45.689Z,20.76
2022-07-26T07:20:12.310Z,20.89
2022-07-26T07:22:38.899Z,20.95
2022-07-26T07:25:06.045Z,21.03
2022-07-26T07:27:33.330Z,20.98
2022-07-26T07:29:59.882Z,21.11
2022-07-26T07:32:26.548Z,21.18
2022-07-26T07:34:55.161Z,21.17
2022-07-26T07:37:21.695Z,21.22
2022-07-26T07:39:50.396Z,21.21
2022-07-26T07:42:17.535Z,21.28
2022-07-26T07:44:43.966Z,21.39
2022-07-26T07:47:10.604Z,21.53
2022-07-26T07:49:37.046Z,21.68
2022-07-26T07:52:03.609Z,21.86
2022-07-26T07:54:30.132Z,21.81
2022-07-26T07:56:56.565Z,21.75
2022-07-26T07:59:23.701Z,21.89
2022-07-26T08:01:50.239Z,21.91
2022-07-26T08:04:16.844Z,21.94
2022-07-26T08:06:47.853Z,21.89
2022-07-26T08:09:17.786Z,21.99
2022-07-26T08:11:44.252Z,22.12
2022-07-26T08:14:10.745Z,22.23
2022-07-26T08:16:37.608Z,22.22
2022-07-26T08:19:04.225Z,22.23
2022-07-26T08:21:31.060Z,22.41
2022-07-26T08:26:41.835Z,22.54
2022-07-26T08:29:08.277Z,22.65
2022-07-26T08:31:34.754Z,22.73
2022-07-26T08:34:01.311Z,22.68
2022-07-26T08:36:32.383Z,22.83
2022-07-26T08:38:59.755Z,22.58
2022-07-26T08:41:26.280Z,22.57
2022-07-26T08:43:53.834Z,22.67
2022-07-26T08:46:25.188Z,22.70
2022-07-26T08:48:52.289Z,22.83
2022-07-26T08:51:20.159Z,22.98
2022-07-26T08:53:47.272Z,23.04
2022-07-26T08:56:13.985Z,23.05
2022-07-26T08:58:40.834Z,23.04
2022-07-26T09:01:09.319Z,23.17
2022-07-26T09:03:39.015Z,23.24
2022-07-26T09:06:16.397Z,23.17
2022-07-26T09:08:43.481Z,23.29
2022-07-26T09:11:25.198Z,23.35
2022-07-26T09:13:52.989Z,23.47
2022-07-26T09:16:19.595Z,23.69
2022-07-26T09:18:46.273Z,23.82
2022-07-26T09:21:29.093Z,23.87
2022-07-26T09:23:56.652Z,23.95
2022-07-26T09:26:25.033Z,24.02
2022-07-26T09:29:07.027Z,24.22
2022-07-26T09:31:34.532Z,24.28
2022-07-26T09:34:01.072Z,24.40
2022-07-26T09:36:28.020Z,24.48
2022-07-26T09:38:59.696Z,24.55
2022-07-26T09:41:30.579Z,24.42
2022-07-26T09:44:00.509Z,24.47
2022-07-26T09:46:27.807Z,24.29
2022-07-26T09:49:11.605Z,24.51
2022-07-26T09:51:38.542Z,24.43
2022-07-26T09:54:05.023Z,24.35
2022-07-26T09:56:45.211Z,24.24
2022-07-26T09:59:13.012Z,24.31
2022-07-26T10:01:39.515Z,24.38
2022-07-26T10:04:05.969Z,24.44
2022-07-26T10:06:32.432Z,24.28
2022-07-26T10:09:00.284Z,23.92
2022-07-26T10:11:28.934Z,24.29
2022-07-26T10:13:57.483Z,24.45
2022-07-26T10:16:31.542Z,24.72
2022-07-26T10:18:59.340Z,24.75
2022-07-26T10:21:29.716Z,24.82
2022-07-26T10:23:57.948Z,24.88
2022-07-26T10:26:33.204Z,24.89
2022-07-26T10:29:19.977Z,25.02
2022-07-26T10:32:03.982Z,24.75
2022-07-26T10:34:34.863Z,24.76
2022-07-26T10:37:02.875Z,24.66
2022-07-26T10:39:29.350Z,24.74
2022-07-26T10:42:03.188Z,24.83
2022-07-26T10:44:31.314Z,24.93
2022-07-26T10:47:10.243Z,24.94
2022-07-26T10:49:38.045Z,24.83
2022-07-26T10:52:06.015Z,24.43
2022-07-26T10:54:32.526Z,24.43
2022-07-26T10:56:58.967Z,24.82
2022-07-26T10:59:53.599Z,25.31
2022-07-26T11:02:20.085Z,25.48
2022-07-26T11:04:46.725Z,25.50
2022-07-26T11:07:13.296Z,25.54
2022-07-26T11:09:39.740Z,25.40
2022-07-26T11:12:24.420Z,25.53
2022-07-26T11:14:51.404Z,25.46
2022-07-26T11:17:24.303Z,25.30
2022-07-26T11:19:51.356Z,25.46
2022-07-26T11:22:18.033Z,25.70
2022-07-26T11:24:44.502Z,25.77
2022-07-26T11:27:11.054Z,26.03
2022-07-26T11:29:41.106Z,26.04
2022-07-26T11:32:17.879Z,26.07
2022-07-26T11:34:45.519Z,26.10
2022-07-26T11:37:12.323Z,26.33
2022-07-26T11:39:38.881Z,26.40
2022-07-26T11:42:09.608Z,26.21
2022-07-26T11:44:36.294Z,26.59
2022-07-26T11:47:31.911Z,26.67
2022-07-26T11:50:17.024Z,26.80
2022-07-26T11:52:45.055Z,26.79
2022-07-26T11:55:12.330Z,26.94
2022-07-26T11:57:38.748Z,27.15
2022-07-26T12:00:05.727Z,27.27
2022-07-26T12:02:32.227Z,27.16
2022-07-26T12:05:14.035Z,27.39
2022-07-26T12:07:52.281Z,27.45
2022-07-26T12:10:18.794Z,27.39
2022-07-26T12:12:45.192Z,27.51
2022-07-26T12:15:13.530Z,27.72
2022-07-26T12:17:57.366Z,28.20
2022-07-26T12:20:27.814Z,27.79
2022-07-26T12:22:55.078Z,27.81
2022-07-26T12:25:25.772Z,27.70
2022-07-26T12:27:53.068Z,27.89
2022-07-26T12:30:19.692Z,28.15
2022-07-26T12:32:48.651Z,27.82
2022-07-26T12:35:16.427Z,28.33
2022-07-26T12:37:45.584Z,28.44
2022-07-26T12:40:13.354Z,28.16
2022-07-26T12:42:40.865Z,28.06
2022-07-26T12:45:08.713Z,27.66
2022-07-26T12:47:36.424Z,27.80
2022-07-26T12:50:04.295Z,27.87
2022-07-26T12:52:31.441Z,28.04
2022-07-26T12:54:57.942Z,28.06
2022-07-26T12:57:24.381Z,27.98
2022-07-26T12:59:50.863Z,28.27
2022-07-26T13:02:18.519Z,28.62
2022-07-26T13:04:45.585Z,28.75
2022-07-26T13:07:12.294Z,28.91
2022-07-26T13:09:38.839Z,28.31
2022-07-26T13:12:06.058Z,28.04
2022-07-26T13:14:33.362Z,28.47
2022-07-26T13:17:00.058Z,28.37
2022-07-26T13:19:26.877Z,28.61
2022-07-26T13:21:53.395Z,28.80
2022-07-26T13:24:20.234Z,28.53
2022-07-26T13:26:49.210Z,28.57
2022-07-26T13:29:15.605Z,28.31
2022-07-26T13:31:42.142Z,28.38
2022-07-26T13:34:09.278Z,28.29
2022-07-26T13:36:35.951Z,28.39
2022-07-26T13:39:02.559Z,28.36
2022-07-26T13:41:29.455Z,28.30
2022-07-26T13:43:57.882Z,28.33
2022-07-26T13:46:26.413Z,28.56
2022-07-26T13:49:01.122Z,28.84
2022-07-26T13:51:55.623Z,28.95
2022-07-26T13:54:23.446Z,29.52
2022-07-26T13:56:50.028Z,29.54
2022-07-26T13:59:16.625Z,29.70
2022-07-26T14:01:45.142Z,29.79
2022-07-26T14:04:13.111Z,29.59
2022-07-26T14:06:40.354Z,29.61
2022-07-26T14:09:10.823Z,29.12
2022-07-26T14:11:38.121Z,29.08
2022-07-26T14:14:05.122Z,29.21
2022-07-26T14:16:31.853Z,29.24
2022-07-26T14:18:58.933Z,29.14
2022-07-26T14:21:25.871Z,28.96
2022-07-26T14:23:52.714Z,28.85
2022-07-26T14:26:19.235Z,28.86
2022-07-26T14:28:46.043Z,28.76
2022-07-26T14:31:12.695Z,28.70
2022-07-26T14:33:39.259Z,28.63
2022-07-26T14:36:05.927Z,28.60
2022-07-26T14:38:32.521Z,28.47
2022-07-26T14:40:59.217Z,28.33
2022-07-26T14:43:26.834Z,28.25
2022-07-26T14:45:53.474Z,28.79
2022-07-26T14:48:44.196Z,28.91
2022-07-26T14:51:09.475Z,29.22
2022-07-26T14:53:36.524Z,29.57
2022-07-26T14:56:02.993Z,30.04
2022-07-26T14:58:29.471Z,30.15
2022-07-26T15:00:56.447Z,30.47
2022-07-26T15:03:22.927Z,30.23
2022-07-26T15:05:49.641Z,30.19
2022-07-26T15:08:16.348Z,30.98
2022-07-26T15:10:42.855Z,30.92
2022-07-26T15:13:09.436Z,31.36
2022-07-26T15:15:36.048Z,31.47
2022-07-26T15:18:02.703Z,31.57
2022-07-26T15:20:29.199Z,31.61
2022-07-26T15:22:55.686Z,31.86
2022-07-26T15:25:22.474Z,31.24
2022-07-26T15:27:49.227Z,31.60
2022-07-26T15:30:16.217Z,31.84
2022-07-26T15:32:43.609Z,31.74
2022-07-26T15:35:14.523Z,31.71
2022-07-26T15:37:41.626Z,31.76
2022-07-26T15:40:08.475Z,31.45
2022-07-26T15:42:38.783Z,31.46
2022-07-26T15:45:09.299Z,31.47
2022-07-26T15:47:53.821Z,31.10
2022-07-26T15:50:21.727Z,31.48
2022-07-26T15:52:48.433Z,31.50
2022-07-26T15:55:16.755Z,31.46
2022-07-26T15:57:45.217Z,31.48
2022-07-26T16:00:13.951Z,30.58
2022-07-26T16:02:40.872Z,30.37
2022-07-26T16:05:07.778Z,30.99
2022-07-26T16:07:34.190Z,30.54
2022-07-26T16:10:01.691Z,30.53
2022-07-26T16:12:28.634Z,30.22
2022-07-26T16:14:55.033Z,30.37
2022-07-26T16:17:21.452Z,30.02
2022-07-26T16:19:48.764Z,29.46
2022-07-26T16:22:15.251Z,29.45
2022-07-26T16:24:41.658Z,29.67
2022-07-26T16:27:08.103Z,29.42
2022-07-26T16:29:34.524Z,28.89
2022-07-26T16:32:01.250Z,30.29
2022-07-26T16:34:30.062Z,29.93
2022-07-26T16:36:56.654Z,29.12
2022-07-26T16:39:23.233Z,28.38
2022-07-26T16:41:49.924Z,27.72
2022-07-26T16:44:16.687Z,27.14
2022-07-26T16:46:44.317Z,26.68
2022-07-26T16:49:11.731Z,26.26
2022-07-26T16:51:38.943Z,25.90
2022-07-26T16:54:05.724Z,25.60
2022-07-26T16:56:32.496Z,25.37
2022-07-26T16:58:59.110Z,25.15
2022-07-26T17:01:25.762Z,24.96
2022-07-26T17:03:52.474Z,24.81
2022-07-26T17:06:19.050Z,24.66
2022-07-26T17:08:45.620Z,24.55
2022-07-26T17:11:12.294Z,24.40
2022-07-26T17:13:38.916Z,24.35
2022-07-26T17:16:05.567Z,24.30
2022-07-26T17:18:32.268Z,24.21
2022-07-26T17:20:59.212Z,24.11
2022-07-26T17:23:25.848Z,24.09
2022-07-26T17:25:52.499Z,24.05
2022-07-26T17:28:19.199Z,24.00
2022-07-26T17:30:45.854Z,23.97
2022-07-26T17:33:12.550Z,23.94
2022-07-26T17:35:39.185Z,23.92
2022-07-26T17:38:05.789Z,23.89
2022-07-26T17:40:34.419Z,23.87
2022-07-26T17:43:01.070Z,23.84
2022-07-26T17:45:27.709Z,23.82
2022-07-26T17:47:54.455Z,23.80
2022-07-26T17:50:38.161Z,23.75
2022-07-26T17:53:05.631Z,23.75
2022-07-26T17:55:32.273Z,23.69
2022-07-26T17:57:58.865Z,23.70
2022-07-26T18:00:28.536Z,23.74
2022-07-26T18:02:55.787Z,23.71
2022-07-26T18:05:34.145Z,23.71
2022-07-26T18:08:03.846Z,23.69
2022-07-26T18:10:30.434Z,23.68
2022-07-26T18:12:57.012Z,23.67
2022-07-26T18:15:23.673Z,23.67
2022-07-26T18:17:50.334Z,23.66
2022-07-26T18:20:16.963Z,23.66
2022-07-26T18:22:45.860Z,23.66
2022-07-26T18:25:17.261Z,23.65
2022-07-26T18:27:43.821Z,23.59
2022-07-26T18:30:10.577Z,23.64
2022-07-26T18:32:37.217Z,23.63
2022-07-26T18:35:04.100Z,23.60
2022-07-26T18:37:31.674Z,23.62
2022-07-26T18:39:59.737Z,23.62
2022-07-26T18:42:26.402Z,23.61
2022-07-26T18:44:52.959Z,23.60
2022-07-26T18:47:19.649Z,23.61
2022-07-26T18:49:46.216Z,23.61
2022-07-26T18:52:12.851Z,23.60
2022-07-26T18:54:40.172Z,23.62
2022-07-26T18:57:06.745Z,23.59
2022-07-26T18:59:33.310Z,23.60
2022-07-26T19:02:00.515Z,23.56
2022-07-26T19:04:27.822Z,23.60
2022-07-26T19:06:54.563Z,23.57
2022-07-26T19:09:21.255Z,23.58
2022-07-26T19:11:47.944Z,23.51
2022-07-26T19:14:14.532Z,23.56
2022-07-26T19:16:41.187Z,23.58
2022-07-26T19:19:10.045Z,23.59
2022-07-26T19:21:37.018Z,23.58
2022-07-26T19:24:03.948Z,23.56
2022-07-26T19:26:30.598Z,23.57
2022-07-26T19:28:57.669Z,23.56
2022-07-26T19:31:24.461Z,23.56
2022-07-26T19:33:51.064Z,23.57
2022-07-26T19:36:18.228Z,23.57
2022-07-26T19:38:52.970Z,23.51
2022-07-26T19:41:20.038Z,23.57
2022-07-26T19:43:46.712Z,23.52
2022-07-26T19:46:13.465Z,23.56
2022-07-26T19:48:41.345Z,23.56
2022-07-26T19:51:07.962Z,23.55
2022-07-26T19:53:34.555Z,23.56
2022-07-26T19:56:01.472Z,23.54
2022-07-26T19:58:29.227Z,23.57
2022-07-26T20:00:55.904Z,23.56
2022-07-26T20:03:22.496Z,23.56
2022-07-26T20:05:50.065Z,23.52
2022-07-26T20:08:16.796Z,23.54
2022-07-26T20:10:43.364Z,23.54
2022-07-26T20:13:09.974Z,23.55
2022-07-26T20:15:36.614Z,23.55
2022-07-26T20:18:04.091Z,23.52
2022-07-26T20:20:30.792Z,23.53
2022-07-26T20:22:57.577Z,23.54
2022-07-26T20:25:25.154Z,23.53
2022-07-26T20:27:51.789Z,23.52
2022-07-26T20:30:19.726Z,23.45
2022-07-26T20:32:46.407Z,23.51
2022-07-26T20:35:13.041Z,23.47
2022-07-26T20:37:41.065Z,23.48
2022-07-26T20:40:09.249Z,23.52
2022-07-26T20:42:36.569Z,23.52
2022-07-26T20:45:11.451Z,23.51
2022-07-26T20:47:43.136Z,23.51
2022-07-26T20:50:12.986Z,23.52
2022-07-26T20:52:40.823Z,23.51
2022-07-26T20:55:08.035Z,23.51
2022-07-26T20:57:35.212Z,23.47
2022-07-26T21:00:02.017Z,23.51
2022-07-26T21:02:28.749Z,23.50
2022-07-26T21:04:55.507Z,23.48
2022-07-26T21:07:22.370Z,23.50
2022-07-26T21:09:48.957Z,23.50
2022-07-26T21:12:15.637Z,23.50
2022-07-26T21:14:42.205Z,23.50
2022-07-26T21:17:11.965Z,23.47
2022-07-26T21:19:39.407Z,23.45
2022-07-26T21:22:06.760Z,23.48
2022-07-26T21:24:35.039Z,23.48
2022-07-26T21:27:05.857Z,23.47
2022-07-26T21:29:39.227Z,23.48
2022-07-26T21:32:06.257Z,23.47
2022-07-26T21:34:34.309Z,23.48
2022-07-26T21:37:01.076Z,23.47
2022-07-26T21:39:27.626Z,23.47
2022-07-26T21:41:54.219Z,23.47
2022-07-26T21:44:20.940Z,23.48
2022-07-26T21:46:49.870Z,23.44
2022-07-26T21:49:18.313Z,23.47
2022-07-26T21:51:45.284Z,23.44
2022-07-26T21:54:11.861Z,23.47
2022-07-26T21:56:38.496Z,23.46
2022-07-26T21:59:05.100Z,23.43
2022-07-26T22:01:31.837Z,23.46
2022-07-26T22:03:58.455Z,23.45
2022-07-26T22:06:25.219Z,23.46
2022-07-26T22:08:51.873Z,23.44
2022-07-26T22:11:18.426Z,23.45
2022-07-26T22:13:44.978Z,23.42
2022-07-26T22:16:11.718Z,23.45
2022-07-26T22:18:38.394Z,23.43
2022-07-26T22:21:05.487Z,23.42
2022-07-26T22:23:32.741Z,23.44
2022-07-26T22:26:04.334Z,23.44
2022-07-26T22:28:33.378Z,23.40
2022-07-26T22:31:00.731Z,23.40
2022-07-26T22:33:27.399Z,23.42
2022-07-26T22:35:54.098Z,23.43
2022-07-26T22:38:20.856Z,23.43
2022-07-26T22:40:47.442Z,23.44
2022-07-26T22:43:14.963Z,23.39
2022-07-26T22:45:41.645Z,23.42
2022-07-26T22:48:09.577Z,23.42
2022-07-26T22:50:36.506Z,23.39
2022-07-26T22:53:03.225Z,23.39
2022-07-26T22:55:31.604Z,23.42
2022-07-26T22:57:58.479Z,23.43
2022-07-26T23:00:25.344Z,23.38
2022-07-26T23:02:52.050Z,23.42
2022-07-26T23:05:19.615Z,23.40
2022-07-26T23:07:48.041Z,23.42
2022-07-26T23:10:15.500Z,23.41
2022-07-26T23:12:42.395Z,23.36
2022-07-26T23:15:10.466Z,23.42
2022-07-26T23:17:37.763Z,23.42
2022-07-26T23:20:06.361Z,23.41
2022-07-26T23:22:33.482Z,23.37
2022-07-26T23:25:00.112Z,23.41
2022-07-26T23:27:26.755Z,23.41
2022-07-26T23:29:53.466Z,23.40
2022-07-26T23:32:20.048Z,23.42
2022-07-26T23:34:46.684Z,23.40
2022-07-26T23:37:13.348Z,23.41
2022-07-26T23:39:39.909Z,23.41
2022-07-26T23:42:07.254Z,23.42
2022-07-26T23:44:34.147Z,23.41
2022-07-26T23:47:00.866Z,23.39
2022-07-26T23:49:27.900Z,23.41
2022-07-26T23:51:54.604Z,23.38
2022-07-26T23:54:21.308Z,23.41
2022-07-26T23:56:47.939Z,23.40
2022-07-26T23:59:15.130Z,23.40
